Archival Weather

Tokyo Intl

Tokyo, Japan (RJTT)

Report from: Sunday, March 19, 2023 6:30 PM JST
Current time: Sunday, July 14, 2024 11:19 AM JST

Current weather – Weather history – Daily summaries
Weather forecast

Temperature12.0°C (53.6°F)
Dew point3.0°C (37.4°F)
Winds 12 kts (6.2 m/s, 13.8 mph) South (170°)
Visibility6.2 mi. (10 km)
Clouds Few clouds 3,000 ft. (914 m)
Altimeter30.06 in.Hg (1018 mB)
Relative humidity54 %
Density altitude-404 ft. (-123 m)
Remarks No significant changes expected in the next two hours
Flight conditions Visual Meteorological Conditions
Raw dataRJTT 190930Z 17012KT 9999 FEW030 12/03 Q1018 NOSIG RMK 1CU030 A3007
An error has occurred. This application may no longer respond until reloaded. Reload 🗙